sensor_id;sensor_type;location;lat;lon;timestamp;temperature;humidity
36790;DHT22;22740;52.182;8.780;2023-04-01T00:02:17;8.90;99.90
36790;DHT22;22740;52.182;8.780;2023-04-01T00:08:19;8.90;99.90
36790;DHT22;22740;52.182;8.780;2023-04-01T00:14:21;8.90;99.90
36790;DHT22;22740;52.182;8.780;2023-04-01T00:20:25;8.80;99.90
36790;DHT22;22740;52.182;8.780;2023-04-01T00:26:27;8.80;99.90
36790;DHT22;22740;52.182;8.780;2023-04-01T00:32:29;8.90;99.90
36790;DHT22;22740;52.182;8.780;2023-04-01T00:38:32;8.80;99.90
36790;DHT22;22740;52.182;8.780;2023-04-01T00:44:34;8.80;99.90
36790;DHT22;22740;52.182;8.780;2023-04-01T00:50:37;8.90;99.90
36790;DHT22;22740;52.182;8.780;2023-04-01T00:56:45;8.90;99.90
36790;DHT22;22740;52.182;8.780;2023-04-01T01:02:50;8.80;99.90
36790;DHT22;22740;52.182;8.780;2023-04-01T01:09:20;8.80;99.90
36790;DHT22;22740;52.182;8.780;2023-04-01T01:15:51;8.80;99.90
36790;DHT22;22740;52.182;8.780;2023-04-01T01:28:59;8.80;99.90
36790;DHT22;22740;52.182;8.780;2023-04-01T01:41:02;8.70;99.90
36790;DHT22;22740;52.182;8.780;2023-04-01T01:47:05;8.70;99.90
36790;DHT22;22740;52.182;8.780;2023-04-01T01:53:10;8.60;99.90
36790;DHT22;22740;52.182;8.780;2023-04-01T01:59:14;8.70;99.90
36790;DHT22;22740;52.182;8.780;2023-04-01T02:05:23;8.70;99.90
36790;DHT22;22740;52.182;8.780;2023-04-01T02:11:42;8.60;99.90
36790;DHT22;22740;52.182;8.780;2023-04-01T02:17:47;8.70;99.90
36790;DHT22;22740;52.182;8.780;2023-04-01T02:23:52;8.60;99.90
36790;DHT22;22740;52.182;8.780;2023-04-01T02:29:55;8.60;99.90
36790;DHT22;22740;52.182;8.780;2023-04-01T02:35:57;8.60;99.90
36790;DHT22;22740;52.182;8.780;2023-04-01T02:41:59;8.60;99.90
36790;DHT22;22740;52.182;8.780;2023-04-01T02:48:02;8.60;99.90
36790;DHT22;22740;52.182;8.780;2023-04-01T02:54:04;8.60;99.90
36790;DHT22;22740;52.182;8.780;2023-04-01T03:00:06;8.60;99.90
36790;DHT22;22740;52.182;8.780;2023-04-01T03:06:14;8.60;99.90
36790;DHT22;22740;52.182;8.780;2023-04-01T03:12:17;8.50;99.90
36790;DHT22;22740;52.182;8.780;2023-04-01T03:18:19;8.50;99.90
36790;DHT22;22740;52.182;8.780;2023-04-01T03:24:21;8.50;99.90
36790;DHT22;22740;52.182;8.780;2023-04-01T03:30:23;8.50;99.90
36790;DHT22;22740;52.182;8.780;2023-04-01T03:36:25;8.50;99.90
36790;DHT22;22740;52.182;8.780;2023-04-01T03:42:27;8.50;99.90
36790;DHT22;22740;52.182;8.780;2023-04-01T03:48:29;8.50;99.90
36790;DHT22;22740;52.182;8.780;2023-04-01T03:54:31;8.40;99.90
36790;DHT22;22740;52.182;8.780;2023-04-01T04:00:33;8.50;99.90
36790;DHT22;22740;52.182;8.780;2023-04-01T04:06:35;8.50;99.90
36790;DHT22;22740;52.182;8.780;2023-04-01T04:12:37;8.50;99.90
36790;DHT22;22740;52.182;8.780;2023-04-01T04:18:39;8.50;99.90
36790;DHT22;22740;52.182;8.780;2023-04-01T04:24:41;8.50;99.90
36790;DHT22;22740;52.182;8.780;2023-04-01T04:30:43;8.50;99.90
36790;DHT22;22740;52.182;8.780;2023-04-01T04:36:45;8.40;99.90
36790;DHT22;22740;52.182;8.780;2023-04-01T04:42:47;8.40;99.90
36790;DHT22;22740;52.182;8.780;2023-04-01T04:48:49;8.50;99.90
36790;DHT22;22740;52.182;8.780;2023-04-01T04:54:51;8.40;99.90
36790;DHT22;22740;52.182;8.780;2023-04-01T05:00:53;8.40;99.90
36790;DHT22;22740;52.182;8.780;2023-04-01T05:06:55;8.40;99.90
36790;DHT22;22740;52.182;8.780;2023-04-01T05:12:57;8.50;99.90
36790;DHT22;22740;52.182;8.780;2023-04-01T05:18:59;8.50;99.90
36790;DHT22;22740;52.182;8.780;2023-04-01T05:25:01;8.50;99.90
36790;DHT22;22740;52.182;8.780;2023-04-01T05:31:06;8.50;99.90
36790;DHT22;22740;52.182;8.780;2023-04-01T05:37:08;8.50;99.90
36790;DHT22;22740;52.182;8.780;2023-04-01T05:43:11;8.50;99.90
36790;DHT22;22740;52.182;8.780;2023-04-01T05:49:13;8.50;99.90
36790;DHT22;22740;52.182;8.780;2023-04-01T05:55:15;8.40;99.90
36790;DHT22;22740;52.182;8.780;2023-04-01T06:01:17;8.40;99.90
36790;DHT22;22740;52.182;8.780;2023-04-01T06:07:20;8.40;99.90
36790;DHT22;22740;52.182;8.780;2023-04-01T06:39:42;8.40;99.90
36790;DHT22;22740;52.182;8.780;2023-04-01T06:52:12;8.50;99.90
36790;DHT22;22740;52.182;8.780;2023-04-01T06:58:26;8.60;99.90
36790;DHT22;22740;52.182;8.780;2023-04-01T07:04:35;8.70;99.90
36790;DHT22;22740;52.182;8.780;2023-04-01T07:10:47;8.80;99.90
36790;DHT22;22740;52.182;8.780;2023-04-01T07:16:53;8.90;99.90
36790;DHT22;22740;52.182;8.780;2023-04-01T07:23:04;9.00;99.90
36790;DHT22;22740;52.182;8.780;2023-04-01T07:29:12;9.10;99.90
36790;DHT22;22740;52.182;8.780;2023-04-01T07:35:30;9.20;99.90
36790;DHT22;22740;52.182;8.780;2023-04-01T07:48:24;9.30;99.90
36790;DHT22;22740;52.182;8.780;2023-04-01T08:01:34;9.40;99.90
36790;DHT22;22740;52.182;8.780;2023-04-01T08:08:04;9.20;99.90
36790;DHT22;22740;52.182;8.780;2023-04-01T08:21:00;9.10;99.90
36790;DHT22;22740;52.182;8.780;2023-04-01T08:27:10;9.00;99.90
36790;DHT22;22740;52.182;8.780;2023-04-01T08:33:25;9.00;99.90
36790;DHT22;22740;52.182;8.780;2023-04-01T08:39:29;9.00;99.90
36790;DHT22;22740;52.182;8.780;2023-04-01T08:45:41;8.90;99.90
36790;DHT22;22740;52.182;8.780;2023-04-01T09:17:17;9.50;99.90
36790;DHT22;22740;52.182;8.780;2023-04-01T09:23:38;9.50;99.90
36790;DHT22;22740;52.182;8.780;2023-04-01T09:36:30;9.60;99.90
36790;DHT22;22740;52.182;8.780;2023-04-01T09:42:56;9.90;99.90
36790;DHT22;22740;52.182;8.780;2023-04-01T09:49:25;10.30;99.90
36790;DHT22;22740;52.182;8.780;2023-04-01T10:02:26;10.80;99.90
36790;DHT22;22740;52.182;8.780;2023-04-01T10:21:59;10.90;99.90
36790;DHT22;22740;52.182;8.780;2023-04-01T10:47:22;11.30;99.90
36790;DHT22;22740;52.182;8.780;2023-04-01T10:54:08;11.70;99.90
36790;DHT22;22740;52.182;8.780;2023-04-01T11:26:07;11.70;99.90
36790;DHT22;22740;52.182;8.780;2023-04-01T11:45:37;11.60;99.90
36790;DHT22;22740;52.182;8.780;2023-04-01T12:24:05;12.20;99.90
36790;DHT22;22740;52.182;8.780;2023-04-01T12:43:16;11.70;99.90
36790;DHT22;22740;52.182;8.780;2023-04-01T12:56:14;11.30;99.90
36790;DHT22;22740;52.182;8.780;2023-04-01T13:02:44;11.20;99.90
36790;DHT22;22740;52.182;8.780;2023-04-01T13:15:28;11.10;99.90
36790;DHT22;22740;52.182;8.780;2023-04-01T13:21:43;11.00;99.90
36790;DHT22;22740;52.182;8.780;2023-04-01T13:27:54;11.10;99.90
36790;DHT22;22740;52.182;8.780;2023-04-01T13:47:12;10.90;99.90
36790;DHT22;22740;52.182;8.780;2023-04-01T14:06:37;11.30;99.90
36790;DHT22;22740;52.182;8.780;2023-04-01T14:12:50;11.40;99.90
36790;DHT22;22740;52.182;8.780;2023-04-01T14:26:14;11.30;99.90
36790;DHT22;22740;52.182;8.780;2023-04-01T14:32:34;11.30;99.90
36790;DHT22;22740;52.182;8.780;2023-04-01T14:39:08;11.30;99.90
36790;DHT22;22740;52.182;8.780;2023-04-01T14:52:11;11.00;99.90
36790;DHT22;22740;52.182;8.780;2023-04-01T14:58:19;11.00;99.90
36790;DHT22;22740;52.182;8.780;2023-04-01T15:11:13;10.90;99.90
36790;DHT22;22740;52.182;8.780;2023-04-01T15:35:45;10.90;99.90
36790;DHT22;22740;52.182;8.780;2023-04-01T15:42:11;11.00;99.90
36790;DHT22;22740;52.182;8.780;2023-04-01T15:48:45;10.80;99.90
36790;DHT22;22740;52.182;8.780;2023-04-01T16:27:25;9.40;99.90
36790;DHT22;22740;52.182;8.780;2023-04-01T16:39:47;8.90;99.90
36790;DHT22;22740;52.182;8.780;2023-04-01T16:58:06;8.60;99.90
36790;DHT22;22740;52.182;8.780;2023-04-01T17:05:05;8.50;99.90
36790;DHT22;22740;52.182;8.780;2023-04-01T17:11:08;8.50;99.90
36790;DHT22;22740;52.182;8.780;2023-04-01T17:17:18;8.30;99.90
36790;DHT22;22740;52.182;8.780;2023-04-01T17:23:39;8.30;99.90
36790;DHT22;22740;52.182;8.780;2023-04-01T17:49:35;7.90;99.90
36790;DHT22;22740;52.182;8.780;2023-04-01T18:09:14;7.60;99.90
36790;DHT22;22740;52.182;8.780;2023-04-01T18:22:09;7.30;99.90
36790;DHT22;22740;52.182;8.780;2023-04-01T18:53:39;6.80;99.90
36790;DHT22;22740;52.182;8.780;2023-04-01T19:00:03;6.60;99.90
36790;DHT22;22740;52.182;8.780;2023-04-01T19:06:52;6.60;99.90
36790;DHT22;22740;52.182;8.780;2023-04-01T19:19:21;6.50;99.90
36790;DHT22;22740;52.182;8.780;2023-04-01T19:25:39;6.40;99.90
36790;DHT22;22740;52.182;8.780;2023-04-01T19:38:12;6.20;99.90
36790;DHT22;22740;52.182;8.780;2023-04-01T19:50:57;6.20;99.90
36790;DHT22;22740;52.182;8.780;2023-04-01T19:57:41;6.20;99.90
36790;DHT22;22740;52.182;8.780;2023-04-01T20:04:10;6.20;99.90
36790;DHT22;22740;52.182;8.780;2023-04-01T20:10:32;6.10;99.90
36790;DHT22;22740;52.182;8.780;2023-04-01T20:16:51;6.00;99.90
36790;DHT22;22740;52.182;8.780;2023-04-01T20:23:26;6.00;99.90
36790;DHT22;22740;52.182;8.780;2023-04-01T20:49:23;5.80;99.90
36790;DHT22;22740;52.182;8.780;2023-04-01T21:02:32;5.60;99.90
36790;DHT22;22740;52.182;8.780;2023-04-01T21:27:50;5.30;99.90
36790;DHT22;22740;52.182;8.780;2023-04-01T22:00:08;5.10;99.90
36790;DHT22;22740;52.182;8.780;2023-04-01T22:12:44;4.80;99.90
36790;DHT22;22740;52.182;8.780;2023-04-01T22:19:06;4.80;99.90
36790;DHT22;22740;52.182;8.780;2023-04-01T22:25:15;4.80;99.90
36790;DHT22;22740;52.182;8.780;2023-04-01T22:31:28;4.70;99.90
36790;DHT22;22740;52.182;8.780;2023-04-01T22:43:57;4.70;99.90
36790;DHT22;22740;52.182;8.780;2023-04-01T22:50:15;4.70;99.90
36790;DHT22;22740;52.182;8.780;2023-04-01T22:56:35;4.60;99.90
36790;DHT22;22740;52.182;8.780;2023-04-01T23:09:23;4.40;99.90
36790;DHT22;22740;52.182;8.780;2023-04-01T23:15:25;4.40;99.90
36790;DHT22;22740;52.182;8.780;2023-04-01T23:21:41;4.20;99.90
36790;DHT22;22740;52.182;8.780;2023-04-01T23:40:14;4.30;99.90
36790;DHT22;22740;52.182;8.780;2023-04-01T23:46:16;4.20;99.90
36790;DHT22;22740;52.182;8.780;2023-04-01T23:52:24;4.20;99.90
36790;DHT22;22740;52.182;8.780;2023-04-01T23:58:45;4.20;99.90
